Time;durP1;ratioP1;P1;durP2;ratioP2;P2;SDS_P1;SDS_P2;PMS_P1;PMS_P2;Temp;Humidity;BMP_temperature;BMP_pressure;BME280_temperature;BME280_humidity;BME280_pressure;Samples;Min_cycle;Max_cycle;Signal;HPM_P1;HPM_P2
2021/04/18 04:50:40;;;;;;;18.23;9.70;;;6.80;99.90;;;;;;5804136;23;20058;-67
2021/04/18 04:53:07;;;;;;;14.15;10.25;;;6.80;99.90;;;;;;4993576;28;20061;-66
2021/04/18 04:55:34;;;;;;;17.92;10.07;;;6.80;99.90;;;;;;4993097;28;20426;-66
2021/04/18 04:58:01;;;;;;;16.45;9.80;;;6.70;99.90;;;;;;4992984;28;20136;-66
2021/04/18 05:00:27;;;;;;;16.45;10.60;;;6.80;99.90;;;;;;4992635;28;20469;-66
2021/04/18 05:02:54;;;;;;;15.45;8.95;;;6.80;99.90;;;;;;4992781;28;20049;-66
2021/04/18 05:05:20;;;;;;;;;;;6.70;99.90;;;;;;5011875;23;20066;-67
2021/04/18 05:07:47;;;;;;;15.98;9.35;;;6.80;99.90;;;;;;4992253;28;19921;-66
2021/04/18 05:10:14;;;;;;;13.98;9.68;;;6.70;99.90;;;;;;4992152;28;20043;-66
2021/04/18 05:12:40;;;;;;;14.90;8.95;;;6.70;99.90;;;;;;4992843;28;20035;-66
2021/04/18 05:15:08;;;;;;;17.33;9.75;;;6.80;99.90;;;;;;4992252;28;20577;-66
2021/04/18 05:17:35;;;;;;;16.98;9.77;;;6.70;99.90;;;;;;4992607;28;20054;-66
2021/04/18 05:20:01;;;;;;;18.00;10.45;;;6.70;99.90;;;;;;4992435;28;20046;-67
2021/04/18 05:22:27;;;;;;;18.67;11.52;;;6.80;99.90;;;;;;4992445;28;20101;-68
2021/04/18 05:24:55;;;;;;;20.15;10.90;;;6.90;99.90;;;;;;4992314;28;20585;-68
2021/04/18 05:27:21;;;;;;;17.60;10.88;;;6.90;99.90;;;;;;4992357;28;20057;-67
2021/04/18 05:29:48;;;;;;;18.40;12.13;;;6.90;99.90;;;;;;4992089;28;20082;-68
2021/04/18 05:32:14;;;;;;;18.67;11.27;;;6.90;99.90;;;;;;4992259;28;20050;-67
2021/04/18 05:34:41;;;;;;;17.98;11.30;;;6.90;99.90;;;;;;4991940;28;20121;-67
2021/04/18 05:37:07;;;;;;;17.33;11.70;;;6.90;99.90;;;;;;5004912;28;20305;-67
2021/04/18 05:39:34;;;;;;;18.40;11.05;;;6.90;99.90;;;;;;5008282;28;20054;-67
2021/04/18 05:42:01;;;;;;;16.58;11.48;;;6.80;99.90;;;;;;5007683;28;20038;-66
2021/04/18 05:44:28;;;;;;;20.65;11.15;;;6.80;99.90;;;;;;5008255;28;20398;-67
2021/04/18 05:46:54;;;;;;;20.05;12.35;;;6.80;99.90;;;;;;4994819;28;20054;-67
2021/04/18 05:49:21;;;;;;;21.58;11.50;;;6.70;99.90;;;;;;4976343;28;20555;-67
2021/04/18 05:51:47;;;;;;;;;;;6.70;99.90;;;;;;4993407;28;20266;-66
2021/04/18 05:54:14;;;;;;;16.40;11.45;;;6.60;99.90;;;;;;4992882;28;19980;-67
2021/04/18 05:56:40;;;;;;;23.20;12.55;;;6.60;99.90;;;;;;4992402;28;20063;-67
2021/04/18 05:59:08;;;;;;;20.08;13.55;;;6.60;99.90;;;;;;4987131;28;20076;-66
2021/04/18 06:01:34;;;;;;;22.08;13.48;;;6.50;99.90;;;;;;4989801;28;20050;-66
2021/04/18 06:04:01;;;;;;;21.10;13.80;;;6.50;99.90;;;;;;5003600;28;20038;-66
2021/04/18 06:06:27;;;;;;;24.00;12.80;;;6.50;99.90;;;;;;4992691;28;20042;-65
2021/04/18 06:08:55;;;;;;;25.13;14.55;;;6.60;99.90;;;;;;4992713;28;20046;-65
2021/04/18 06:11:22;;;;;;;23.55;13.98;;;6.60;99.90;;;;;;4992340;28;20177;-65
2021/04/18 06:13:49;;;;;;;18.85;13.27;;;6.60;99.90;;;;;;4991719;28;20046;-65
2021/04/18 06:16:16;;;;;;;17.90;12.70;;;6.60;99.90;;;;;;4973635;28;20553;-67
2021/04/18 06:18:43;;;;;;;25.02;12.82;;;6.60;99.90;;;;;;4991285;28;20128;-66
2021/04/18 06:21:09;;;;;;;17.25;13.40;;;6.70;99.90;;;;;;4991556;28;20081;-66
2021/04/18 06:23:36;;;;;;;19.70;13.13;;;6.70;99.90;;;;;;4991144;28;20038;-65
2021/04/18 06:26:03;;;;;;;25.80;16.40;;;6.80;99.90;;;;;;4990866;28;20053;-67
2021/04/18 06:28:30;;;;;;;40.17;28.42;;;6.90;99.90;;;;;;4991022;28;20426;-67
2021/04/18 06:30:56;;;;;;;;;;;6.90;99.90;;;;;;4991396;28;20053;-66
2021/04/18 06:33:24;;;;;;;30.40;18.05;;;6.80;99.90;;;;;;4990897;28;19921;-66
2021/04/18 06:35:50;;;;;;;32.10;18.42;;;6.90;99.90;;;;;;4990822;28;20128;-67
2021/04/18 06:38:17;;;;;;;27.63;20.85;;;6.80;99.90;;;;;;4990939;28;20046;-67
2021/04/18 06:40:43;;;;;;;26.00;18.13;;;6.80;99.90;;;;;;4990924;28;20129;-66
2021/04/18 06:43:11;;;;;;;23.27;16.95;;;6.90;99.90;;;;;;4990890;28;20534;-66
2021/04/18 06:45:39;;;;;;;25.00;15.85;;;6.90;99.90;;;;;;4989216;28;20054;-66
2021/04/18 06:48:07;;;;;;;27.10;15.90;;;7.00;99.90;;;;;;4990785;28;20046;-67
2021/04/18 06:50:34;;;;;;;24.25;16.23;;;7.00;99.90;;;;;;4990818;28;20526;-66
2021/04/18 06:53:00;;;;;;;24.77;16.13;;;7.00;99.90;;;;;;4991536;28;20046;-66
2021/04/18 06:55:27;;;;;;;22.35;16.85;;;7.10;99.90;;;;;;4990871;28;20050;-66
2021/04/18 06:57:53;;;;;;;28.27;16.58;;;7.10;99.90;;;;;;4990050;28;20129;-67
2021/04/18 07:00:22;;;;;;;24.13;16.50;;;7.10;99.90;;;;;;4990534;28;20077;-66
2021/04/18 07:02:48;;;;;;;23.58;15.65;;;7.20;99.90;;;;;;4990405;28;20574;-67
2021/04/18 07:05:16;;;;;;;24.90;16.95;;;7.20;99.90;;;;;;4990452;28;20569;-67
2021/04/18 07:07:45;;;;;;;22.73;16.27;;;7.10;99.90;;;;;;4990948;28;20379;-67
2021/04/18 07:10:24;;;;;;;23.65;15.38;;;7.20;99.90;;;;;;4989053;28;20070;-67
2021/04/18 07:12:53;;;;;;;28.60;17.20;;;7.20;99.90;;;;;;4990782;28;20402;-67
2021/04/18 07:15:35;;;;;;;24.45;14.93;;;7.20;99.90;;;;;;4982048;28;20058;-67
2021/04/18 07:18:02;;;;;;;26.67;17.50;;;7.30;99.90;;;;;;4970955;28;20125;-67
2021/04/18 07:20:28;;;;;;;;;;;7.40;99.90;;;;;;4971331;28;20071;-67
2021/04/18 07:22:56;;;;;;;28.55;16.35;;;7.30;99.90;;;;;;4971355;28;19941;-67
2021/04/18 07:25:30;;;;;;;27.33;16.25;;;7.40;99.90;;;;;;4970986;28;20066;-67
2021/04/18 07:27:57;;;;;;;27.75;16.48;;;7.40;99.90;;;;;;4972887;28;20067;-66
2021/04/18 07:30:26;;;;;;;20.20;15.45;;;7.50;99.90;;;;;;4972599;28;20043;-67
2021/04/18 07:33:05;;;;;;;24.48;16.25;;;7.50;99.90;;;;;;4972123;28;20046;-67
2021/04/18 07:35:33;;;;;;;23.92;15.80;;;7.40;99.90;;;;;;4971100;28;20101;-67
2021/04/18 07:38:19;;;;;;;22.60;16.23;;;7.40;99.90;;;;;;4970890;28;20042;-67
2021/04/18 07:40:46;;;;;;;20.73;15.52;;;7.60;99.90;;;;;;4969234;28;20105;-67
2021/04/18 07:43:14;;;;;;;22.52;15.15;;;7.60;99.90;;;;;;4969601;28;20047;-65
2021/04/18 07:45:42;;;;;;;20.25;13.88;;;7.70;99.90;;;;;;4953343;28;20400;-65
2021/04/18 07:48:11;;;;;;;21.85;14.63;;;7.80;99.90;;;;;;4970673;28;20352;-66
2021/04/18 07:50:38;;;;;;;25.95;16.63;;;7.90;99.90;;;;;;4970253;28;20456;-66
2021/04/18 07:53:06;;;;;;;24.98;15.10;;;8.00;99.90;;;;;;4970564;28;20043;-66
2021/04/18 07:55:35;;;;;;;21.73;17.10;;;8.10;99.90;;;;;;4970505;28;20062;-65
2021/04/18 07:58:02;;;;;;;22.80;15.45;;;8.20;99.90;;;;;;4970388;28;20047;-65
2021/04/18 08:00:29;;;;;;;22.38;15.95;;;8.20;99.90;;;;;;4970807;28;20377;-65
2021/04/18 08:02:56;;;;;;;24.88;15.27;;;8.20;99.90;;;;;;4971067;28;20125;-66
2021/04/18 08:05:25;;;;;;;28.55;17.25;;;8.30;99.90;;;;;;4970370;28;20065;-65
2021/04/18 08:07:59;;;;;;;21.40;14.50;;;8.40;99.90;;;;;;4971263;28;20141;-66
2021/04/18 08:10:27;;;;;;;21.90;16.33;;;8.40;99.90;;;;;;4972320;28;20134;-66
2021/04/18 08:13:10;;;;;;;25.40;15.55;;;8.40;99.90;;;;;;4974421;28;20398;-66
2021/04/18 08:15:39;;;;;;;21.92;16.48;;;8.30;99.90;;;;;;4983218;28;20038;-66
2021/04/18 08:18:09;;;;;;;24.13;15.90;;;8.30;99.90;;;;;;4993596;28;20050;-65
2021/04/18 08:20:37;;;;;;;20.88;16.33;;;8.30;99.90;;;;;;4993771;28;20054;-65
2021/04/18 08:23:07;;;;;;;26.85;17.27;;;8.20;99.90;;;;;;4994043;28;20042;-65
2021/04/18 08:25:34;;;;;;;25.98;17.35;;;8.10;99.90;;;;;;4994210;28;20081;-65
2021/04/18 08:28:04;;;;;;;24.80;16.38;;;8.00;99.90;;;;;;4994133;28;20406;-65
2021/04/18 08:30:52;;;;;;;23.50;16.88;;;8.00;99.90;;;;;;4994491;28;20141;-66
2021/04/18 08:33:47;;;;;;;26.55;17.75;;;8.00;99.90;;;;;;4994107;28;20042;-66
2021/04/18 08:36:16;;;;;;;25.02;17.08;;;8.10;99.90;;;;;;4994262;28;20129;-65
2021/04/18 08:38:43;;;;;;;24.10;17.85;;;8.10;99.90;;;;;;4994288;28;20133;-65
2021/04/18 08:41:13;;;;;;;27.15;19.10;;;8.00;99.90;;;;;;4993914;28;20069;-65
2021/04/18 08:43:40;;;;;;;31.17;20.30;;;8.10;99.90;;;;;;4994106;28;20449;-65
2021/04/18 08:46:07;;;;;;;28.88;20.52;;;8.10;99.90;;;;;;4993805;28;20051;-64
2021/04/18 08:48:33;;;;;;;32.17;21.77;;;8.10;99.90;;;;;;4994376;28;20111;-65
2021/04/18 08:51:03;;;;;;;32.38;21.98;;;8.10;99.90;;;;;;4993671;28;20066;-65
2021/04/18 08:53:50;;;;;;;31.45;20.63;;;8.10;99.90;;;;;;4993514;28;20062;-65
2021/04/18 08:56:16;;;;;;;28.15;20.75;;;8.10;99.90;;;;;;4992794;28;20053;-65
2021/04/18 08:58:43;;;;;;;30.67;21.13;;;8.20;99.90;;;;;;4992895;28;20290;-64
2021/04/18 09:01:11;;;;;;;35.22;20.75;;;8.20;99.90;;;;;;4992824;28;20121;-64
2021/04/18 09:03:39;;;;;;;28.23;19.95;;;8.30;99.90;;;;;;4992659;28;20129;-65
2021/04/18 09:06:17;;;;;;;27.95;18.98;;;8.20;99.90;;;;;;4992345;28;20058;-65
2021/04/18 09:08:51;;;;;;;31.20;21.60;;;8.30;99.90;;;;;;4991662;28;20057;-65
2021/04/18 09:11:18;;;;;;;27.38;18.40;;;8.30;99.90;;;;;;4992351;28;20134;-65
2021/04/18 09:13:55;;;;;;;29.75;17.88;;;8.30;99.90;;;;;;4992524;28;20129;-65
2021/04/18 09:16:27;;;;;;;24.52;17.73;;;8.20;99.90;;;;;;4977043;28;20043;-65
2021/04/18 09:18:53;;;;;;;25.70;17.67;;;8.10;99.90;;;;;;4973198;28;20053;-64
2021/04/18 09:21:26;;;;;;;22.77;16.73;;;8.10;99.90;;;;;;4972348;28;20046;-68
2021/04/18 09:23:56;;;;;;;26.50;17.17;;;8.00;99.90;;;;;;4972918;28;20045;-66
2021/04/18 09:26:23;;;;;;;23.20;16.20;;;8.10;99.90;;;;;;4973050;28;20078;-66
2021/04/18 09:29:09;;;;;;;26.20;16.85;;;8.10;99.90;;;;;;4973380;28;20043;-66
2021/04/18 09:31:51;;;;;;;26.05;17.65;;;8.20;99.90;;;;;;4973236;28;20487;-65
2021/04/18 09:34:20;;;;;;;26.40;17.35;;;8.40;99.90;;;;;;4974206;28;20154;-65
2021/04/18 09:36:50;;;;;;;29.17;14.48;;;8.40;99.90;;;;;;4973598;28;20566;-66
2021/04/18 09:39:17;;;;;;;25.80;15.82;;;8.50;99.90;;;;;;4973229;28;20049;-66
2021/04/18 09:41:44;;;;;;;21.08;14.77;;;8.70;99.90;;;;;;4972811;28;20047;-66
2021/04/18 09:44:26;;;;;;;22.85;14.88;;;8.70;99.90;;;;;;4973085;28;20503;-65
2021/04/18 09:46:54;;;;;;;24.65;14.52;;;8.80;99.90;;;;;;4972841;28;20125;-65
2021/04/18 09:49:21;;;;;;;18.02;12.48;;;8.90;99.90;;;;;;4972982;28;20072;-66
2021/04/18 09:51:59;;;;;;;18.17;13.10;;;8.90;99.90;;;;;;4972741;28;20074;-66
2021/04/18 09:54:32;;;;;;;20.80;14.98;;;9.10;99.90;;;;;;4972539;28;20446;-66
2021/04/18 09:57:18;;;;;;;22.33;14.57;;;9.20;99.90;;;;;;4972662;28;20054;-65
2021/04/18 10:00:00;;;;;;;18.60;13.50;;;9.30;99.90;;;;;;4972768;28;20073;-66
2021/04/18 10:02:26;;;;;;;18.55;14.18;;;9.30;99.90;;;;;;4973334;28;20062;-65
2021/04/18 10:05:12;;;;;;;19.15;13.85;;;9.50;99.90;;;;;;4973192;28;20081;-65
2021/04/18 10:07:39;;;;;;;19.85;14.02;;;9.60;99.90;;;;;;4973929;28;20110;-66
2021/04/18 10:10:07;;;;;;;19.90;14.30;;;9.90;99.90;;;;;;4973810;28;20047;-66
2021/04/18 10:12:47;;;;;;;18.13;12.75;;;9.80;99.90;;;;;;4972495;28;20054;-66
2021/04/18 10:15:14;;;;;;;19.00;12.77;;;10.00;99.90;;;;;;4978447;28;20046;-66
2021/04/18 10:17:40;;;;;;;16.15;11.95;;;10.00;99.90;;;;;;4991894;28;20101;-65
2021/04/18 10:20:08;;;;;;;17.00;13.35;;;10.20;99.90;;;;;;4991788;28;20286;-65
2021/04/18 10:22:35;;;;;;;15.55;10.60;;;10.40;99.90;;;;;;4991909;28;20038;-65
2021/04/18 10:25:08;;;;;;;17.00;12.38;;;10.50;99.90;;;;;;4991567;28;20050;-65
2021/04/18 10:27:35;;;;;;;21.08;11.65;;;10.80;99.90;;;;;;4991319;28;20125;-66
2021/04/18 10:30:06;;;;;;;18.35;11.63;;;11.00;99.90;;;;;;4991574;28;20070;-66
2021/04/18 10:32:33;;;;;;;16.02;12.07;;;11.20;99.90;;;;;;4990982;28;20046;-66
2021/04/18 10:35:00;;;;;;;13.45;11.45;;;11.40;99.90;;;;;;4991614;28;20085;-65
2021/04/18 10:37:26;;;;;;;15.40;11.35;;;11.50;99.90;;;;;;4991755;28;20117;-65
2021/04/18 10:39:53;;;;;;;15.88;12.63;;;11.40;99.90;;;;;;4991028;28;20365;-65
2021/04/18 10:42:20;;;;;;;15.23;11.85;;;11.30;99.90;;;;;;4990866;28;20114;-65
2021/04/18 10:44:47;;;;;;;17.35;11.80;;;11.40;99.90;;;;;;4991046;28;20042;-65
2021/04/18 10:47:16;;;;;;;17.95;11.80;;;11.40;99.90;;;;;;4991119;28;20063;-64
2021/04/18 10:49:45;;;;;;;15.73;11.68;;;11.50;99.90;;;;;;4991586;28;20132;-65
2021/04/18 10:52:11;;;;;;;18.55;11.70;;;11.60;99.90;;;;;;4990617;28;20181;-65
2021/04/18 10:54:38;;;;;;;17.42;12.55;;;11.30;99.90;;;;;;4990893;28;20097;-65
2021/04/18 10:57:05;;;;;;;20.73;14.90;;;11.20;99.90;;;;;;4990974;28;20074;-65
2021/04/18 10:59:32;;;;;;;17.63;12.20;;;11.10;99.90;;;;;;4990727;28;20565;-65
2021/04/18 11:01:59;;;;;;;17.75;12.05;;;11.30;99.90;;;;;;4990807;28;20077;-65
2021/04/18 11:04:26;;;;;;;14.35;11.05;;;11.70;99.90;;;;;;4990982;28;20129;-65
2021/04/18 11:06:52;;;;;;;;;;;11.80;99.90;;;;;;5010558;23;20100;-65
2021/04/18 11:09:18;;;;;;;17.23;12.27;;;11.90;99.90;;;;;;4990520;28;20229;-63
2021/04/18 11:11:45;;;;;;;17.42;11.63;;;12.00;99.90;;;;;;4990743;28;20053;-64
2021/04/18 11:14:12;;;;;;;17.45;11.73;;;11.80;99.90;;;;;;4990585;28;20035;-65
2021/04/18 11:16:39;;;;;;;17.13;12.30;;;11.60;99.90;;;;;;5005636;28;20153;-64
2021/04/18 11:19:06;;;;;;;17.67;13.10;;;11.40;99.90;;;;;;4990695;28;20046;-65
2021/04/18 11:21:33;;;;;;;17.95;12.48;;;11.70;99.90;;;;;;4989348;28;20502;-65
2021/04/18 11:23:59;;;;;;;19.60;13.38;;;11.80;99.90;;;;;;4990464;28;20105;-65
2021/04/18 11:26:26;;;;;;;15.50;11.98;;;11.90;99.90;;;;;;4990367;28;20108;-65
2021/04/18 11:28:53;;;;;;;15.98;12.38;;;11.90;99.90;;;;;;4990423;28;20077;-65
2021/04/18 11:31:20;;;;;;;;;;;11.60;99.90;;;;;;4990994;28;20049;-64
2021/04/18 11:33:47;;;;;;;17.80;12.10;;;11.70;99.90;;;;;;4990129;28;19992;-66
2021/04/18 11:36:15;;;;;;;17.40;12.15;;;11.80;99.90;;;;;;4990344;28;20403;-64
2021/04/18 11:38:41;;;;;;;16.88;12.95;;;11.70;99.90;;;;;;4990620;28;20128;-66
2021/04/18 11:41:08;;;;;;;15.80;12.48;;;11.80;99.90;;;;;;4990740;28;20042;-66
2021/04/18 11:43:35;;;;;;;15.68;11.95;;;11.90;99.90;;;;;;4991276;28;20046;-66
2021/04/18 11:46:01;;;;;;;21.30;13.57;;;12.10;99.90;;;;;;4994287;28;20046;-66
2021/04/18 11:48:28;;;;;;;18.27;13.25;;;12.00;99.90;;;;;;4994439;28;20202;-65
2021/04/18 11:50:55;;;;;;;16.60;11.73;;;12.00;99.90;;;;;;4994006;28;20046;-65
2021/04/18 11:53:21;;;;;;;16.08;12.40;;;12.30;99.90;;;;;;4992883;28;20042;-65
2021/04/18 11:55:48;;;;;;;17.67;11.70;;;12.20;99.90;;;;;;4994107;28;20416;-65
2021/04/18 11:58:15;;;;;;;16.05;12.20;;;12.50;99.90;;;;;;4994003;28;20437;-65
2021/04/18 12:00:41;;;;;;;15.20;12.32;;;12.50;99.90;;;;;;4994126;28;20052;-66
2021/04/18 12:03:09;;;;;;;16.17;12.25;;;12.70;99.90;;;;;;4994033;28;20035;-66
2021/04/18 12:05:35;;;;;;;20.38;13.23;;;12.60;99.90;;;;;;4994067;28;20068;-66
2021/04/18 12:08:03;;;;;;;17.83;12.13;;;12.90;99.90;;;;;;4994110;28;20049;-66
2021/04/18 12:10:29;;;;;;;18.42;12.90;;;12.90;99.90;;;;;;4993823;28;20057;-65
2021/04/18 12:12:56;;;;;;;17.40;12.30;;;12.30;99.90;;;;;;4993929;28;20506;-65
2021/04/18 12:15:22;;;;;;;17.02;12.88;;;12.60;99.90;;;;;;4993714;28;20038;-65
2021/04/18 12:17:49;;;;;;;17.83;11.80;;;12.50;99.90;;;;;;4993693;28;20050;-64
2021/04/18 12:20:16;;;;;;;14.60;12.82;;;12.40;99.90;;;;;;4993876;28;20042;-65
2021/04/18 12:22:42;;;;;;;;;;;12.60;99.90;;;;;;4976358;28;20042;-65
2021/04/18 12:25:11;;;;;;;15.70;12.18;;;12.70;99.90;;;;;;4993258;28;19941;-65
2021/04/18 12:27:38;;;;;;;22.63;13.63;;;13.30;99.90;;;;;;4993770;28;20145;-65
2021/04/18 12:30:06;;;;;;;19.13;12.10;;;13.70;99.90;;;;;;4975574;28;20050;-65
2021/04/18 12:32:33;;;;;;;15.48;11.85;;;13.80;99.90;;;;;;4993367;28;20049;-65
2021/04/18 12:34:59;;;;;;;18.77;13.05;;;13.80;99.90;;;;;;4993272;28;20057;-65
2021/04/18 12:37:26;;;;;;;17.45;13.13;;;13.90;99.90;;;;;;4975531;28;20087;-65
2021/04/18 12:39:53;;;;;;;15.48;12.25;;;13.50;99.90;;;;;;4975798;28;20078;-65
2021/04/18 12:42:20;;;;;;;15.25;12.27;;;13.70;99.90;;;;;;4993019;28;20058;-65
2021/04/18 12:44:47;;;;;;;18.35;12.55;;;13.60;99.90;;;;;;4993145;28;20038;-65
2021/04/18 12:47:13;;;;;;;16.30;12.75;;;13.60;99.90;;;;;;4993316;28;20042;-66
2021/04/18 12:49:40;;;;;;;16.25;11.95;;;13.70;99.90;;;;;;4975973;28;20050;-65
2021/04/18 12:52:07;;;;;;;14.30;12.07;;;14.00;99.90;;;;;;4993561;28;20077;-66
2021/04/18 12:54:34;;;;;;;22.48;11.55;;;14.00;99.90;;;;;;4993171;28;20046;-65
2021/04/18 12:57:01;;;;;;;16.17;12.50;;;14.10;99.90;;;;;;4992070;28;20042;-66
2021/04/18 12:59:28;;;;;;;16.67;11.75;;;14.20;99.90;;;;;;4993277;28;20230;-66
2021/04/18 13:01:55;;;;;;;15.85;11.35;;;14.40;99.90;;;;;;4993269;28;20061;-66
2021/04/18 13:04:21;;;;;;;19.73;11.40;;;14.70;99.90;;;;;;4975683;28;20042;-65
2021/04/18 13:06:48;;;;;;;15.75;11.40;;;14.70;99.90;;;;;;4993269;28;20305;-67
2021/04/18 13:09:15;;;;;;;14.77;11.98;;;14.30;99.90;;;;;;4993184;28;20505;-65
2021/04/18 13:11:41;;;;;;;;;;;14.30;99.90;;;;;;4993378;28;20141;-64
2021/04/18 13:14:07;;;;;;;15.73;11.73;;;15.00;99.90;;;;;;4992926;28;19922;-66
2021/04/18 13:16:35;;;;;;;14.35;10.80;;;14.80;99.90;;;;;;4975196;28;20141;-66
2021/04/18 13:19:02;;;;;;;16.17;11.55;;;14.90;99.90;;;;;;4992679;28;20069;-67
2021/04/18 13:21:28;;;;;;;14.40;11.45;;;14.80;99.90;;;;;;4992698;28;20471;-67
2021/04/18 13:23:55;;;;;;;16.38;11.63;;;14.40;99.90;;;;;;4993439;28;20042;-64
2021/04/18 13:26:22;;;;;;;;;;;14.10;99.90;;;;;;4992755;28;20054;-65
2021/04/18 13:28:49;;;;;;;12.98;11.13;;;14.10;99.90;;;;;;4992228;28;20082;-65
2021/04/18 13:31:15;;;;;;;;;;;14.20;99.90;;;;;;4992615;28;20049;-65
2021/04/18 13:33:43;;;;;;;13.73;11.18;;;15.40;99.90;;;;;;4992210;28;19922;-65
2021/04/18 13:36:10;;;;;;;15.55;11.88;;;15.80;99.90;;;;;;4991942;28;20126;-65
2021/04/18 13:38:37;;;;;;;20.48;12.32;;;15.40;99.90;;;;;;4992489;28;20042;-66
2021/04/18 13:41:04;;;;;;;15.43;10.90;;;14.70;99.90;;;;;;4992109;28;20046;-65
2021/04/18 13:43:30;;;;;;;14.55;11.02;;;15.10;99.90;;;;;;4992176;28;20074;-66
2021/04/18 13:45:57;;;;;;;16.38;11.18;;;15.90;99.90;;;;;;4992000;28;20133;-66
2021/04/18 13:48:23;;;;;;;15.63;12.27;;;16.30;99.90;;;;;;4991799;28;20043;-66
2021/04/18 13:50:51;;;;;;;15.25;12.13;;;15.20;99.90;;;;;;4991602;28;20426;-65
2021/04/18 13:53:19;;;;;;;17.48;12.23;;;15.20;99.90;;;;;;4991597;28;20045;-65
2021/04/18 13:55:46;;;;;;;14.38;11.80;;;15.40;99.90;;;;;;4991386;28;20038;-66
2021/04/18 13:58:12;;;;;;;17.90;12.68;;;14.90;99.90;;;;;;4974141;28;20051;-66
2021/04/18 14:00:39;;;;;;;12.70;11.48;;;14.80;99.90;;;;;;4991525;28;20042;-66
2021/04/18 14:03:06;;;;;;;15.57;12.10;;;15.20;99.90;;;;;;4992040;28;20036;-65
2021/04/18 14:05:33;;;;;;;15.52;11.85;;;15.20;99.90;;;;;;4991154;28;20042;-65
2021/04/18 14:08:00;;;;;;;14.27;11.55;;;15.60;99.90;;;;;;4992037;28;20097;-65
2021/04/18 14:10:27;;;;;;;17.13;12.77;;;14.80;99.90;;;;;;4991412;28;20038;-66
2021/04/18 14:12:53;;;;;;;21.15;12.73;;;15.10;99.90;;;;;;4992416;28;20657;-66
2021/04/18 14:15:20;;;;;;;14.65;12.02;;;15.00;99.90;;;;;;4991709;28;20126;-66
2021/04/18 14:17:47;;;;;;;;;;;14.50;99.90;;;;;;4992176;28;20038;-66
2021/04/18 14:20:14;;;;;;;14.80;11.57;;;14.40;99.90;;;;;;4991793;28;19961;-66
2021/04/18 14:22:41;;;;;;;16.13;12.48;;;14.50;99.90;;;;;;4991242;28;20039;-66
2021/04/18 14:25:10;;;;;;;16.23;12.02;;;14.50;99.90;;;;;;4991454;28;20042;-66
2021/04/18 14:27:37;;;;;;;15.27;11.57;;;14.60;99.90;;;;;;4991519;28;20097;-64
2021/04/18 14:30:04;;;;;;;;;;;14.80;99.90;;;;;;4991772;28;20105;-66
2021/04/18 14:32:30;;;;;;;16.23;12.38;;;15.50;99.90;;;;;;4990987;28;19932;-66
2021/04/18 14:34:57;;;;;;;19.40;12.48;;;15.20;99.90;;;;;;4991041;28;20407;-66
2021/04/18 14:37:25;;;;;;;17.45;11.88;;;14.80;99.90;;;;;;4990742;28;20101;-66
2021/04/18 14:39:52;;;;;;;11.40;9.85;;;15.00;99.90;;;;;;4990856;28;20042;-66
2021/04/18 14:42:20;;;;;;;12.15;10.73;;;15.40;99.90;;;;;;4990949;28;20054;-66
2021/04/18 14:44:47;;;;;;;12.63;9.60;;;15.40;99.90;;;;;;4990832;28;20049;-66
2021/04/18 14:47:13;;;;;;;13.65;10.30;;;15.80;99.90;;;;;;4990593;28;20066;-66
2021/04/18 14:49:40;;;;;;;13.05;10.85;;;15.80;99.90;;;;;;4972964;28;20157;-66
2021/04/18 14:52:07;;;;;;;12.32;10.35;;;15.80;99.90;;;;;;4990526;28;20051;-67
2021/04/18 14:54:33;;;;;;;18.08;11.73;;;15.60;99.90;;;;;;4990558;28;20053;-67
2021/04/18 14:57:00;;;;;;;15.45;12.10;;;15.60;99.90;;;;;;4990354;28;20126;-66
2021/04/18 14:59:27;;;;;;;15.52;13.93;;;15.40;99.90;;;;;;4990636;28;20049;-66
2021/04/18 15:01:54;;;;;;;16.08;12.82;;;15.70;99.90;;;;;;4990552;28;20070;-67
2021/04/18 15:04:20;;;;;;;12.38;10.25;;;15.70;99.90;;;;;;4990374;28;20049;-66
2021/04/18 15:06:47;;;;;;;12.60;10.82;;;15.50;99.90;;;;;;4990368;28;20478;-67
2021/04/18 15:09:14;;;;;;;16.98;12.00;;;15.80;99.90;;;;;;4973187;28;20154;-66
2021/04/18 15:11:40;;;;;;;12.70;11.38;;;15.40;99.90;;;;;;4990761;28;20050;-67
2021/04/18 15:14:07;;;;;;;15.55;11.77;;;15.60;99.90;;;;;;4990634;28;20040;-67
2021/04/18 15:16:34;;;;;;;14.07;11.55;;;15.30;99.90;;;;;;4990071;28;20422;-65
2021/04/18 15:19:00;;;;;;;11.88;10.32;;;15.00;99.90;;;;;;4989771;28;20048;-65
2021/04/18 15:21:27;;;;;;;13.05;10.82;;;14.80;99.90;;;;;;4990137;28;20450;-66
2021/04/18 15:23:54;;;;;;;17.50;11.98;;;14.60;99.90;;;;;;4990257;28;20049;-65
2021/04/18 15:26:20;;;;;;;;;;;14.70;99.90;;;;;;4990445;28;20121;-66
2021/04/18 15:28:46;;;;;;;12.77;10.73;;;14.90;99.90;;;;;;4990371;28;19972;-66
2021/04/18 15:31:14;;;;;;;12.70;10.20;;;14.90;99.90;;;;;;4989832;28;20042;-65
2021/04/18 15:33:41;;;;;;;12.93;11.05;;;14.50;99.90;;;;;;4972295;28;20070;-65
2021/04/18 15:36:08;;;;;;;13.55;10.90;;;13.90;99.90;;;;;;4972370;28;20054;-65
2021/04/18 15:38:36;;;;;;;18.23;11.18;;;13.70;99.90;;;;;;4990112;28;20042;-65
2021/04/18 15:41:04;;;;;;;16.08;11.10;;;13.50;99.90;;;;;;4989985;28;20042;-66
2021/04/18 15:43:33;;;;;;;20.15;16.13;;;13.50;99.90;;;;;;4990263;28;20609;-66
2021/04/18 15:46:00;;;;;;;14.70;11.18;;;13.40;99.90;;;;;;4990144;28;20053;-66
2021/04/18 15:48:26;;;;;;;13.70;11.02;;;13.50;99.90;;;;;;4990175;28;20093;-66
2021/04/18 15:50:54;;;;;;;13.25;11.85;;;13.40;99.90;;;;;;4990529;28;20050;-66
2021/04/18 15:53:21;;;;;;;18.63;12.63;;;13.50;99.90;;;;;;4989995;28;20042;-65
2021/04/18 15:55:47;;;;;;;15.10;12.45;;;13.70;99.90;;;;;;4990096;28;20133;-65
2021/04/18 15:58:14;;;;;;;14.43;11.30;;;13.50;99.90;;;;;;4990254;28;20038;-65
2021/04/18 16:00:41;;;;;;;15.02;11.45;;;13.50;99.90;;;;;;4990284;28;20185;-66
2021/04/18 16:03:07;;;;;;;15.70;11.23;;;13.70;99.90;;;;;;4990176;28;20125;-66
2021/04/18 16:05:34;;;;;;;;;;;13.80;99.90;;;;;;4990243;28;20074;-66
2021/04/18 16:08:01;;;;;;;15.00;11.32;;;13.70;99.90;;;;;;4990322;28;19928;-66
2021/04/18 16:10:28;;;;;;;17.77;12.57;;;13.70;99.90;;;;;;4989802;28;20093;-65
2021/04/18 16:12:56;;;;;;;15.07;12.98;;;13.60;99.90;;;;;;4989902;28;20073;-67
2021/04/18 16:15:22;;;;;;;12.93;11.63;;;13.60;99.90;;;;;;4990366;28;20387;-66
2021/04/18 16:17:49;;;;;;;16.67;10.65;;;13.70;99.90;;;;;;4972766;28;20490;-66
2021/04/18 16:20:15;;;;;;;16.15;10.38;;;13.70;99.90;;;;;;4989839;28;20043;-66
2021/04/18 16:22:42;;;;;;;14.18;9.95;;;13.60;99.90;;;;;;4989790;28;20046;-67
2021/04/18 16:25:10;;;;;;;16.30;10.27;;;13.60;99.90;;;;;;4989869;28;20584;-66
2021/04/18 16:27:37;;;;;;;12.45;10.50;;;13.50;99.90;;;;;;4990917;28;20483;-67
2021/04/18 16:30:05;;;;;;;24.85;18.83;;;13.50;99.90;;;;;;4989812;28;20525;-67
2021/04/18 16:32:32;;;;;;;28.08;20.63;;;13.50;99.90;;;;;;4993713;28;20042;-67
2021/04/18 16:34:59;;;;;;;20.70;13.35;;;13.30;99.90;;;;;;4993606;28;20498;-67
2021/04/18 16:37:25;;;;;;;14.23;11.18;;;13.30;99.90;;;;;;4991904;28;20504;-67
2021/04/18 16:39:52;;;;;;;12.93;11.27;;;13.30;99.90;;;;;;4992936;28;20054;-66
2021/04/18 16:42:19;;;;;;;13.35;10.52;;;13.30;99.90;;;;;;4991889;28;20141;-67
2021/04/18 16:44:46;;;;;;;15.35;11.63;;;13.30;99.90;;;;;;4992879;28;20053;-66
2021/04/18 16:47:12;;;;;;;12.23;10.88;;;13.20;99.90;;;;;;4992639;28;20045;-66
2021/04/18 16:49:39;;;;;;;12.65;9.88;;;13.20;99.90;;;;;;4975471;28;20046;-67
2021/04/18 16:52:06;;;;;;;12.27;9.82;;;13.30;99.90;;;;;;4993385;28;20053;-66
2021/04/18 16:54:32;;;;;;;11.98;10.40;;;13.20;99.90;;;;;;4992783;28;20038;-67
2021/04/18 16:56:59;;;;;;;12.88;10.43;;;13.10;99.90;;;;;;4993079;28;20070;-66
2021/04/18 16:59:26;;;;;;;19.40;10.27;;;13.10;99.90;;;;;;4994540;28;20057;-67
2021/04/18 17:01:52;;;;;;;13.63;10.20;;;13.00;99.90;;;;;;4996201;28;20102;-66
2021/04/18 17:04:19;;;;;;;13.90;11.27;;;12.90;99.90;;;;;;4997829;28;20069;-66
2021/04/18 17:06:45;;;;;;;13.40;10.00;;;12.90;99.90;;;;;;5015348;23;20054;-66
2021/04/18 17:09:12;;;;;;;14.50;11.90;;;12.90;99.90;;;;;;4974171;28;20047;-66
2021/04/18 17:11:38;;;;;;;13.05;11.05;;;12.90;99.90;;;;;;4974190;28;20118;-66
2021/04/18 17:14:05;;;;;;;13.55;11.02;;;12.90;99.90;;;;;;4973793;28;20514;-66
2021/04/18 17:16:32;;;;;;;;;;;12.80;99.90;;;;;;4992306;28;20042;-66
2021/04/18 17:18:59;;;;;;;16.23;12.30;;;12.80;99.90;;;;;;4993859;28;19968;-65
2021/04/18 17:21:25;;;;;;;14.40;10.23;;;12.80;99.90;;;;;;4994293;28;20753;-65
2021/04/18 17:23:52;;;;;;;17.33;11.23;;;12.70;99.90;;;;;;4993393;28;20147;-66
2021/04/18 17:26:19;;;;;;;15.98;10.85;;;12.60;99.90;;;;;;4993812;28;20507;-65
2021/04/18 17:28:46;;;;;;;15.38;11.63;;;12.60;99.90;;;;;;5003222;28;20046;-66